createdAt,value
2019-03-05T00:01:43.861Z,2.20
2019-03-05T00:04:32.246Z,2.13
2019-03-05T00:07:20.298Z,2.33
2019-03-05T00:10:12.078Z,2.97
2019-03-05T00:13:00.552Z,2.50
2019-03-05T00:15:49.686Z,2.83
2019-03-05T00:18:37.961Z,2.40
2019-03-05T00:21:26.032Z,2.40
2019-03-05T00:24:50.767Z,2.43
2019-03-05T00:27:41.223Z,1.97
2019-03-05T00:30:35.595Z,2.60
2019-03-05T00:33:32.674Z,2.37
2019-03-05T00:36:26.299Z,2.63
2019-03-05T00:39:32.080Z,3.37
2019-03-05T00:42:43.077Z,3.20
2019-03-05T00:45:49.741Z,1.97
2019-03-05T00:48:57.542Z,2.33
2019-03-05T00:52:00.575Z,2.50
2019-03-05T00:54:51.673Z,2.30
2019-03-05T00:57:46.111Z,2.97
2019-03-05T01:00:46.219Z,2.30
2019-03-05T01:03:55.269Z,2.50
2019-03-05T01:06:43.327Z,2.30
2019-03-05T01:09:32.152Z,2.17
2019-03-05T01:12:21.137Z,2.43
2019-03-05T01:15:10.253Z,1.97
2019-03-05T01:17:58.449Z,1.97
2019-03-05T01:20:46.991Z,2.13
2019-03-05T01:23:35.362Z,2.30
2019-03-05T01:26:23.850Z,1.70
2019-03-05T01:29:12.234Z,1.90
2019-03-05T01:32:05.119Z,2.83
2019-03-05T01:34:57.595Z,2.40
2019-03-05T01:37:45.711Z,2.70
2019-03-05T01:40:35.503Z,2.37
2019-03-05T01:43:24.025Z,2.53
2019-03-05T01:46:12.447Z,2.10
2019-03-05T01:49:00.925Z,2.03
2019-03-05T01:51:49.141Z,2.17
2019-03-05T01:54:37.342Z,2.60
2019-03-05T01:57:25.789Z,2.43
2019-03-05T02:00:14.680Z,1.87
2019-03-05T02:03:03.059Z,2.73
2019-03-05T02:05:51.481Z,1.67
2019-03-05T02:08:40.557Z,2.10
2019-03-05T02:11:28.767Z,2.17
2019-03-05T02:14:17.030Z,2.20
2019-03-05T02:17:05.341Z,2.23
2019-03-05T02:19:53.787Z,1.67
2019-03-05T02:22:43.383Z,2.30
2019-03-05T02:25:46.599Z,2.27
2019-03-05T02:28:53.158Z,2.10
2019-03-05T02:32:01.244Z,2.37
2019-03-05T02:35:10.564Z,1.80
2019-03-05T02:38:05.329Z,1.80
2019-03-05T02:40:57.583Z,2.33
2019-03-05T02:43:52.073Z,2.13
2019-03-05T02:46:49.159Z,1.87
2019-03-05T02:49:46.658Z,2.20
2019-03-05T02:52:38.135Z,2.27
2019-03-05T02:55:32.215Z,2.00
2019-03-05T02:58:19.240Z,2.00
2019-03-05T03:01:27.535Z,2.93
2019-03-05T03:04:17.314Z,1.73
2019-03-05T03:07:05.604Z,1.83
2019-03-05T03:09:57.098Z,1.70
2019-03-05T03:12:45.514Z,2.03
2019-03-05T03:15:33.875Z,1.80
2019-03-05T03:18:22.030Z,2.33
2019-03-05T03:21:11.398Z,2.03
2019-03-05T03:23:59.792Z,2.50
2019-03-05T03:26:48.468Z,2.27
2019-03-05T03:29:36.937Z,1.77
2019-03-05T03:32:25.015Z,1.73
2019-03-05T03:35:15.804Z,1.30
2019-03-05T03:38:04.490Z,2.10
2019-03-05T03:40:53.136Z,1.93
2019-03-05T03:43:41.716Z,2.70
2019-03-05T03:46:30.118Z,1.93
2019-03-05T03:49:18.004Z,1.57
2019-03-05T03:52:06.471Z,2.20
2019-03-05T03:54:54.864Z,1.30
2019-03-05T03:57:43.146Z,2.10
2019-03-05T04:00:31.701Z,1.83
2019-03-05T04:03:19.841Z,2.03
2019-03-05T04:06:08.285Z,1.63
2019-03-05T04:08:56.558Z,1.60
2019-03-05T04:11:44.934Z,2.17
2019-03-05T04:14:33.447Z,1.70
2019-03-05T04:17:22.075Z,2.03
2019-03-05T04:20:12.648Z,1.70
2019-03-05T04:23:01.512Z,1.90
2019-03-05T04:25:49.497Z,1.67
2019-03-05T04:28:38.039Z,1.67
2019-03-05T04:31:26.165Z,1.37
2019-03-05T04:34:14.735Z,1.63
2019-03-05T04:37:03.401Z,1.83
2019-03-05T04:39:51.663Z,2.00
2019-03-05T04:42:39.913Z,1.60
2019-03-05T04:45:35.138Z,1.37
2019-03-05T04:48:23.291Z,1.50
2019-03-05T04:51:13.281Z,1.37
2019-03-05T04:54:01.439Z,1.80
2019-03-05T04:56:49.675Z,1.40
2019-03-05T04:59:37.727Z,1.73
2019-03-05T05:02:26.158Z,1.37
2019-03-05T05:05:14.882Z,1.93
2019-03-05T05:08:03.485Z,1.40
2019-03-05T05:10:51.960Z,1.57
2019-03-05T05:13:39.888Z,1.90
2019-03-05T05:16:28.372Z,1.37
2019-03-05T05:19:16.517Z,1.47
2019-03-05T05:22:04.942Z,1.60
2019-03-05T05:24:53.061Z,2.00
2019-03-05T05:27:41.461Z,1.27
2019-03-05T05:30:31.757Z,1.80
2019-03-05T05:33:20.197Z,1.50
2019-03-05T05:36:08.528Z,1.50
2019-03-05T05:38:56.610Z,1.77
2019-03-05T05:41:45.121Z,1.80
2019-03-05T05:44:33.155Z,1.57
2019-03-05T05:47:21.084Z,1.43
2019-03-05T05:50:09.341Z,1.53
2019-03-05T05:52:57.676Z,1.60
2019-03-05T05:55:46.238Z,1.40
2019-03-05T05:58:34.659Z,1.50
2019-03-05T06:01:22.819Z,2.07
2019-03-05T06:04:10.903Z,2.10
2019-03-05T06:06:59.012Z,1.40
2019-03-05T06:09:47.456Z,1.17
2019-03-05T06:12:35.734Z,1.40
2019-03-05T06:15:24.024Z,1.90
2019-03-05T06:18:12.213Z,1.80
2019-03-05T06:21:00.809Z,1.60
2019-03-05T06:23:48.906Z,1.63
2019-03-05T06:26:37.089Z,1.20
2019-03-05T06:29:25.157Z,1.30
2019-03-05T06:32:13.305Z,1.57
2019-03-05T06:35:01.556Z,1.37
2019-03-05T06:37:49.925Z,1.40
2019-03-05T06:40:38.492Z,1.67
2019-03-05T06:43:27.044Z,1.30
2019-03-05T06:46:15.285Z,1.80
2019-03-05T06:49:03.424Z,1.00
2019-03-05T06:51:51.743Z,1.67
2019-03-05T06:54:40.037Z,1.40
2019-03-05T06:57:28.212Z,1.57
2019-03-05T07:00:26.507Z,1.73
2019-03-05T07:03:14.489Z,1.23
2019-03-05T07:06:39.102Z,1.30
2019-03-05T07:09:33.393Z,1.30
2019-03-05T07:12:27.911Z,1.10
2019-03-05T07:15:21.803Z,1.70
2019-03-05T07:18:18.806Z,1.00
2019-03-05T07:21:38.537Z,1.10
2019-03-05T07:24:46.405Z,1.40
2019-03-05T07:27:34.627Z,1.30
2019-03-05T07:30:22.977Z,1.80
2019-03-05T07:33:11.337Z,1.40
2019-03-05T07:36:00.084Z,1.73
2019-03-05T07:38:48.339Z,1.27
2019-03-05T07:41:36.546Z,1.50
2019-03-05T07:44:24.586Z,1.40
2019-03-05T07:47:13.118Z,1.10
2019-03-05T07:50:01.733Z,1.50
2019-03-05T07:52:50.075Z,1.20
2019-03-05T07:55:38.566Z,1.33
2019-03-05T07:58:27.073Z,1.43
2019-03-05T08:01:22.316Z,1.33
2019-03-05T08:04:05.351Z,1.73
2019-03-05T08:06:53.678Z,1.20
2019-03-05T08:09:41.750Z,1.53
2019-03-05T08:12:45.004Z,1.53
2019-03-05T08:15:44.068Z,1.10
2019-03-05T08:18:31.956Z,1.00
2019-03-05T08:21:20.258Z,1.50
2019-03-05T08:24:08.768Z,1.47
2019-03-05T08:26:57.157Z,1.37
2019-03-05T08:29:45.527Z,1.37
2019-03-05T08:32:33.803Z,1.30
2019-03-05T08:35:22.220Z,1.47
2019-03-05T08:38:11.493Z,1.37
2019-03-05T08:40:59.936Z,1.17
2019-03-05T08:43:48.006Z,1.13
2019-03-05T08:46:36.165Z,1.63
2019-03-05T08:49:24.418Z,2.43
2019-03-05T08:52:12.791Z,1.50
2019-03-05T08:55:01.389Z,1.40
2019-03-05T08:57:49.319Z,1.17
2019-03-05T09:00:37.318Z,1.40
2019-03-05T09:03:25.496Z,1.60
2019-03-05T09:06:13.903Z,0.93
2019-03-05T09:09:02.722Z,1.60
2019-03-05T09:11:51.080Z,1.30
2019-03-05T09:14:39.687Z,1.13
2019-03-05T09:17:27.771Z,1.70
2019-03-05T09:20:18.519Z,1.10
2019-03-05T09:23:06.764Z,1.20
2019-03-05T09:25:55.137Z,1.40
2019-03-05T09:28:43.615Z,1.13
2019-03-05T09:31:31.978Z,1.40
2019-03-05T09:34:20.288Z,1.23
2019-03-05T09:37:08.465Z,1.40
2019-03-05T09:39:56.839Z,1.20
2019-03-05T09:42:45.413Z,0.90
2019-03-05T09:45:33.913Z,1.17
2019-03-05T09:48:22.441Z,1.07
2019-03-05T09:51:10.578Z,0.90
2019-03-05T09:53:58.946Z,1.27
2019-03-05T09:56:47.115Z,1.03
2019-03-05T09:59:35.413Z,1.20
2019-03-05T10:02:23.844Z,1.00
2019-03-05T10:05:14.862Z,1.00
2019-03-05T10:08:03.407Z,1.17
2019-03-05T10:10:52.022Z,1.40
2019-03-05T10:13:40.342Z,1.70
2019-03-05T10:16:28.922Z,1.07
2019-03-05T10:19:17.095Z,1.10
2019-03-05T10:22:05.198Z,0.80
2019-03-05T10:24:53.356Z,0.90
2019-03-05T10:27:42.095Z,1.13
2019-03-05T10:30:36.742Z,1.43
2019-03-05T10:33:25.354Z,1.70
2019-03-05T10:36:13.690Z,1.03
2019-03-05T10:39:02.329Z,1.10
2019-03-05T10:41:50.982Z,1.37
2019-03-05T10:44:39.378Z,1.47
2019-03-05T10:47:27.845Z,1.20
2019-03-05T10:50:27.988Z,0.93
2019-03-05T10:53:16.643Z,0.90
2019-03-05T10:56:05.932Z,1.00
2019-03-05T10:58:53.967Z,1.10
2019-03-05T11:01:42.686Z,1.30
2019-03-05T11:04:32.003Z,1.13
2019-03-05T11:07:20.378Z,1.00
2019-03-05T11:10:11.846Z,1.10
2019-03-05T11:13:01.540Z,1.47
2019-03-05T11:15:53.349Z,1.23
2019-03-05T11:18:41.893Z,1.23
2019-03-05T11:21:30.187Z,1.17
2019-03-05T11:24:18.516Z,1.17
2019-03-05T11:27:06.980Z,1.83
2019-03-05T11:29:55.502Z,1.10
2019-03-05T11:32:44.233Z,1.37
2019-03-05T11:35:34.356Z,1.00
2019-03-05T11:38:22.730Z,1.40
2019-03-05T11:41:11.196Z,1.30
2019-03-05T11:43:59.589Z,1.00
2019-03-05T11:46:48.044Z,0.90
2019-03-05T11:49:36.415Z,1.13
2019-03-05T11:52:24.998Z,1.10
2019-03-05T11:55:19.487Z,1.20
2019-03-05T11:58:07.571Z,1.10
2019-03-05T12:01:00.599Z,1.50
2019-03-05T12:03:48.590Z,1.40
2019-03-05T12:06:37.298Z,1.07
2019-03-05T12:09:25.736Z,1.00
2019-03-05T12:12:14.078Z,1.47
2019-03-05T12:15:02.497Z,1.37
2019-03-05T12:17:50.912Z,1.50
2019-03-05T12:20:39.180Z,0.80
2019-03-05T12:23:27.724Z,1.50
2019-03-05T12:26:16.007Z,1.60
2019-03-05T12:29:04.221Z,1.23
2019-03-05T12:31:52.379Z,0.83
2019-03-05T12:34:40.401Z,1.40
2019-03-05T12:37:29.348Z,1.23
2019-03-05T12:40:25.982Z,1.50
2019-03-05T12:43:14.633Z,1.47
2019-03-05T12:46:02.741Z,1.20
2019-03-05T12:48:51.308Z,1.20
2019-03-05T12:51:39.559Z,1.27
2019-03-05T12:54:28.023Z,1.07
2019-03-05T12:57:16.653Z,1.20
2019-03-05T13:00:09.796Z,1.00
2019-03-05T13:02:58.415Z,1.20
2019-03-05T13:05:46.614Z,1.50
2019-03-05T13:08:35.222Z,1.67
2019-03-05T13:11:23.382Z,1.10
2019-03-05T13:14:12.388Z,0.90
2019-03-05T13:17:00.415Z,0.83
2019-03-05T13:19:48.978Z,0.90
2019-03-05T13:22:37.803Z,1.43
2019-03-05T13:25:28.727Z,1.40
2019-03-05T13:28:16.313Z,0.93
2019-03-05T13:31:05.208Z,1.30
2019-03-05T13:33:54.355Z,1.00
2019-03-05T13:36:43.055Z,1.07
2019-03-05T13:39:31.346Z,1.20
2019-03-05T13:42:19.361Z,0.93
2019-03-05T13:45:09.258Z,1.00
2019-03-05T13:48:03.792Z,1.40
2019-03-05T13:51:25.177Z,0.90
2019-03-05T13:54:19.327Z,1.20
2019-03-05T13:57:25.794Z,1.30
2019-03-05T14:00:14.281Z,1.40
2019-03-05T14:03:08.656Z,1.03
2019-03-05T14:06:17.967Z,1.50
2019-03-05T14:09:18.871Z,1.30
2019-03-05T14:12:07.411Z,1.27
2019-03-05T14:14:57.725Z,1.00
2019-03-05T14:17:46.014Z,1.10
2019-03-05T14:20:19.722Z,0.90
2019-03-05T14:23:13.335Z,1.37
2019-03-05T14:25:44.899Z,1.00
2019-03-05T14:28:15.845Z,1.33
2019-03-05T14:30:46.664Z,1.53
2019-03-05T14:33:17.429Z,1.40
2019-03-05T14:35:48.110Z,1.17
2019-03-05T14:38:19.047Z,1.10
2019-03-05T14:40:49.911Z,1.00
2019-03-05T14:43:20.700Z,1.80
2019-03-05T14:45:51.408Z,1.40
2019-03-05T14:48:22.011Z,1.20
2019-03-05T14:50:52.642Z,1.27
2019-03-05T14:53:23.388Z,1.40
2019-03-05T14:55:54.664Z,1.47
2019-03-05T14:58:25.408Z,1.23
2019-03-05T15:00:56.480Z,1.30
2019-03-05T15:03:30.348Z,1.60
2019-03-05T15:06:05.595Z,1.10
2019-03-05T15:08:36.369Z,1.37
2019-03-05T15:11:07.107Z,1.40
2019-03-05T15:13:55.278Z,1.73
2019-03-05T15:16:43.569Z,1.37
2019-03-05T15:19:34.573Z,1.40
2019-03-05T15:22:22.011Z,1.57
2019-03-05T15:25:15.424Z,1.27
2019-03-05T15:28:04.160Z,1.20
2019-03-05T15:30:52.506Z,1.53
2019-03-05T15:33:40.915Z,1.93
2019-03-05T15:36:29.520Z,1.30
2019-03-05T15:39:17.840Z,1.40
2019-03-05T15:42:06.048Z,1.10
2019-03-05T15:44:54.636Z,1.40
2019-03-05T15:47:43.317Z,1.33
2019-03-05T15:50:32.606Z,1.40
2019-03-05T15:53:22.152Z,1.23
2019-03-05T15:56:10.439Z,1.10
2019-03-05T15:58:58.438Z,1.57
2019-03-05T16:01:47.010Z,1.63
2019-03-05T16:04:35.871Z,1.20
2019-03-05T16:07:25.118Z,1.40
2019-03-05T16:10:17.166Z,1.40
2019-03-05T16:13:06.309Z,1.43
2019-03-05T16:15:54.801Z,1.50
2019-03-05T16:18:43.401Z,1.60
2019-03-05T16:21:37.172Z,2.17
2019-03-05T16:24:23.162Z,2.13
2019-03-05T16:27:12.390Z,1.60
2019-03-05T16:30:00.899Z,1.67
2019-03-05T16:32:51.175Z,2.10
2019-03-05T16:35:41.162Z,1.80
2019-03-05T16:38:51.214Z,1.40
2019-03-05T16:41:57.416Z,1.30
2019-03-05T16:44:49.785Z,1.53
2019-03-05T16:47:39.815Z,1.57
2019-03-05T16:50:32.760Z,1.50
2019-03-05T16:53:31.542Z,1.57
2019-03-05T16:56:09.072Z,1.53
2019-03-05T16:58:57.212Z,1.73
2019-03-05T17:01:46.922Z,1.30
2019-03-05T17:04:42.640Z,1.90
2019-03-05T17:07:41.111Z,2.10
2019-03-05T17:10:42.731Z,1.50
2019-03-05T17:13:31.112Z,1.37
2019-03-05T17:16:19.596Z,1.43
2019-03-05T17:19:07.992Z,1.67
2019-03-05T17:21:56.656Z,1.93
2019-03-05T17:24:44.682Z,1.97
2019-03-05T17:27:32.912Z,1.50
2019-03-05T17:30:21.161Z,1.90
2019-03-05T17:33:09.240Z,1.40
2019-03-05T17:35:57.277Z,1.80
2019-03-05T17:38:45.534Z,1.33
2019-03-05T17:41:33.871Z,1.87
2019-03-05T17:44:22.069Z,1.40
2019-03-05T17:47:10.373Z,1.70
2019-03-05T17:49:58.733Z,1.17
2019-03-05T17:52:47.071Z,1.43
2019-03-05T17:55:35.278Z,1.40
2019-03-05T17:58:23.748Z,1.33
2019-03-05T18:01:12.649Z,1.77
2019-03-05T18:04:00.918Z,1.70
2019-03-05T18:06:49.661Z,1.53
2019-03-05T18:09:41.059Z,2.20
2019-03-05T18:12:33.500Z,1.87
2019-03-05T18:15:22.064Z,1.43
2019-03-05T18:18:10.380Z,1.90
2019-03-05T18:20:58.931Z,1.97
2019-03-05T18:23:47.225Z,1.77
2019-03-05T18:26:35.121Z,1.93
2019-03-05T18:29:23.620Z,2.77
2019-03-05T18:32:12.120Z,1.83
2019-03-05T18:35:00.521Z,2.07
2019-03-05T18:37:49.067Z,1.63
2019-03-05T18:40:37.644Z,1.67
2019-03-05T18:43:26.441Z,1.37
2019-03-05T18:46:17.397Z,1.40
2019-03-05T18:49:06.277Z,1.17
2019-03-05T18:51:54.769Z,0.90
2019-03-05T18:54:43.339Z,1.60
2019-03-05T18:57:31.519Z,1.70
2019-03-05T19:00:25.745Z,1.07
2019-03-05T19:03:16.574Z,1.20
2019-03-05T19:06:04.992Z,1.33
2019-03-05T19:08:53.310Z,1.30
2019-03-05T19:11:41.560Z,1.60
2019-03-05T19:14:30.229Z,1.20
2019-03-05T19:17:20.893Z,1.40
2019-03-05T19:20:17.285Z,1.07
2019-03-05T19:23:06.128Z,2.00
2019-03-05T19:25:54.772Z,1.33
2019-03-05T19:28:43.259Z,1.10
2019-03-05T19:31:31.744Z,1.33
2019-03-05T19:34:20.251Z,1.10
2019-03-05T19:37:09.545Z,1.70
2019-03-05T19:39:58.243Z,1.30
2019-03-05T19:42:46.605Z,1.00
2019-03-05T19:45:35.162Z,1.00
2019-03-05T19:48:23.524Z,1.10
2019-03-05T19:51:12.182Z,1.20
2019-03-05T19:54:00.531Z,1.77
2019-03-05T19:56:48.953Z,1.87
2019-03-05T19:59:37.572Z,1.47
2019-03-05T20:02:26.350Z,1.50
2019-03-05T20:05:16.681Z,1.50
2019-03-05T20:08:05.459Z,1.17
2019-03-05T20:10:54.253Z,1.03
2019-03-05T20:13:42.943Z,1.57
2019-03-05T20:16:31.603Z,0.87
2019-03-05T20:19:20.384Z,1.60
2019-03-05T20:22:08.858Z,1.23
2019-03-05T20:24:57.515Z,1.13
2019-03-05T20:27:46.221Z,1.00
2019-03-05T20:30:34.962Z,0.73
2019-03-05T20:33:06.166Z,0.93
2019-03-05T20:35:54.819Z,1.60
2019-03-05T20:38:43.335Z,1.00
2019-03-05T20:41:31.793Z,1.00
2019-03-05T20:44:20.300Z,1.20
2019-03-05T20:47:08.921Z,0.90
2019-03-05T20:49:57.143Z,1.53
2019-03-05T20:52:45.893Z,1.30
2019-03-05T20:55:34.491Z,1.10
2019-03-05T20:58:23.025Z,0.97
2019-03-05T21:01:11.664Z,1.03
2019-03-05T21:04:00.444Z,0.97
2019-03-05T21:06:49.189Z,1.30
2019-03-05T21:09:38.001Z,0.93
2019-03-05T21:12:26.387Z,1.47
2019-03-05T21:15:17.319Z,1.47
2019-03-05T21:18:08.716Z,1.23
2019-03-05T21:20:57.216Z,1.33
2019-03-05T21:23:45.769Z,1.20
2019-03-05T21:26:34.324Z,1.30
2019-03-05T21:29:22.659Z,1.53
2019-03-05T21:32:11.101Z,0.80
2019-03-05T21:34:59.916Z,1.53
2019-03-05T21:37:48.516Z,1.40
2019-03-05T21:40:37.176Z,1.00
2019-03-05T21:43:25.601Z,1.00
2019-03-05T21:46:16.848Z,1.40
2019-03-05T21:49:05.439Z,1.13
2019-03-05T21:51:54.193Z,0.90
2019-03-05T21:54:42.489Z,0.87
2019-03-05T21:57:30.940Z,1.20
2019-03-05T22:00:22.487Z,1.00
2019-03-05T22:03:10.860Z,1.30
2019-03-05T22:05:59.106Z,1.30
2019-03-05T22:08:47.130Z,1.00
2019-03-05T22:11:35.268Z,0.97
2019-03-05T22:14:23.332Z,1.10
2019-03-05T22:17:12.001Z,1.07
2019-03-05T22:20:00.382Z,1.00
2019-03-05T22:22:48.844Z,1.33
2019-03-05T22:25:37.226Z,1.33
2019-03-05T22:28:25.269Z,0.93
2019-03-05T22:31:13.788Z,0.97
2019-03-05T22:33:56.162Z,1.40
2019-03-05T22:36:44.442Z,1.00
2019-03-05T22:39:32.803Z,1.30
2019-03-05T22:42:20.858Z,1.00
2019-03-05T22:45:14.815Z,1.20
2019-03-05T22:48:03.222Z,1.30
2019-03-05T22:50:51.536Z,1.17
2019-03-05T22:53:39.554Z,0.70
2019-03-05T22:56:28.124Z,1.00
2019-03-05T22:59:16.292Z,1.10
2019-03-05T23:02:05.186Z,1.60
2019-03-05T23:04:53.636Z,1.10
2019-03-05T23:07:42.066Z,1.40
2019-03-05T23:10:30.591Z,1.47
2019-03-05T23:13:19.235Z,1.00
2019-03-05T23:16:07.548Z,1.20
2019-03-05T23:18:56.055Z,1.23
2019-03-05T23:21:44.710Z,1.33
2019-03-05T23:24:32.993Z,0.83
2019-03-05T23:27:21.297Z,1.17
2019-03-05T23:30:22.580Z,1.10
2019-03-05T23:33:11.238Z,1.33
2019-03-05T23:36:00.438Z,0.80
2019-03-05T23:38:48.914Z,0.93
2019-03-05T23:41:37.248Z,1.13
2019-03-05T23:44:25.791Z,1.20
2019-03-05T23:47:14.094Z,0.90
2019-03-05T23:50:02.321Z,1.10
2019-03-05T23:52:50.705Z,1.10
2019-03-05T23:55:39.195Z,0.90
2019-03-05T23:58:27.655Z,1.13
